Adventuress — WCX8691 — position and weather

sailwx.info

Track history (hours):
 
Tides and Currents Weather Stations Pressure Air Temp Water Temp Dewpoint Dewpoint Depression Visibility Wind Speed Wind Dir Waves Ship Positions

Adventuress (United States)

Ship's website: http://www.soundexp.org/

Owner: SOUND EXPERIENCE, PORT TOWNSEND, WA. More information available from US FCC via Universal Licensing System and Coast Guard Vessel Documentation Center.

Last reported at 2017-Jun-26 17:17 UTC. Time now 2017-Jun-26 18:53 UTC.
Position N 48°44' W 122°31'.

Type: Passenger vessel. MMSI: 367323180.

Date/timePositionNaut miles runAvg speedWind from/ knotsBaromVisibWave heightAir tempDewpointWater temp
2017-Jun-26 17:17N 48°44' W 122°31'  
2017-Jun-24 06:15N 48°34' W 122°59'0 0.1
2017-Jun-23 23:44N 48°34' W 122°59'1 4.1
2017-Jun-23 23:28N 48°33' W 123°00'1 0.6
2017-Jun-23 22:33N 48°33' W 123°01'0 0.3
2017-Jun-23 22:24N 48°33' W 123°01'0 0.5
2017-Jun-23 21:54N 48°33' W 123°00'1 2.5
2017-Jun-23 21:29N 48°34' W 123°00'0 0.7
2017-Jun-23 20:55N 48°33' W 122°60'2 4.6
2017-Jun-23 20:29N 48°32' W 122°57'2 5.0
2017-Jun-23 20:00N 48°30' W 122°59'1 2.7
2017-Jun-23 19:30N 48°29' W 122°60'1 2.3
2017-Jun-23 19:00N 48°29' W 122°58'20 3.8
2017-Jun-23 13:46N 48°10' W 122°48'4 7.2
2017-Jun-23 13:16N 48°07' W 122°45'0 0.1
2017-Jun-23 06:14N 48°07' W 122°45'0 0.0
2017-Jun-22 23:11N 48°07' W 122°45'12 2.1
2017-Jun-22 17:31N 47°58' W 122°34'1 5.9
2017-Jun-22 17:19N 47°57' W 122°32'2 6.1
2017-Jun-22 17:00N 47°56' W 122°30'3 6.2
2017-Jun-22 16:30N 47°53' W 122°28'3 6.0
2017-Jun-22 16:00N 47°50' W 122°27'3 5.9
2017-Jun-22 15:30N 47°47' W 122°26'4 0.3
2017-Jun-22 01:01N 47°45' W 122°32'0 0.0
2017-Jun-22 00:49N 47°45' W 122°32'0 0.5
2017-Jun-22 00:28N 47°44' W 122°32'2 3.4
2017-Jun-22 00:00N 47°44' W 122°29'3 6.5
2017-Jun-21 23:30N 47°45' W 122°25'2 4.4
2017-Jun-21 23:00N 47°44' W 122°28'1 2.3
2017-Jun-21 22:30N 47°43' W 122°27'1 2.9
2017-Jun-21 22:00N 47°42' W 122°25'1 3.0
2017-Jun-21 21:31N 47°41' W 122°24'0 0.0
2017-Jun-21 20:58N 47°41' W 122°24'0 0.0
2017-Jun-21 20:28N 47°41' W 122°24'0 0.0
2017-Jun-21 19:58N 47°41' W 122°24'0 0.0
2017-Jun-21 19:31N 47°41' W 122°24'0 0.0
2017-Jun-21 19:01N 47°41' W 122°24'0 0.0
2017-Jun-21 18:28N 47°41' W 122°24'0 0.0
2017-Jun-21 17:55N 47°41' W 122°24'0 0.0
2017-Jun-21 17:31N 47°41' W 122°24'0 0.0
2017-Jun-21 17:00N 47°41' W 122°24'0 0.0
2017-Jun-21 16:31N 47°41' W 122°24'0 0.0
2017-Jun-21 16:00N 47°41' W 122°24'0 0.0
2017-Jun-21 15:31N 47°41' W 122°24'0 0.0
2017-Jun-21 15:01N 47°41' W 122°24'0 0.0
2017-Jun-21 14:30N 47°41' W 122°24'0 0.0
2017-Jun-21 13:30N 47°41' W 122°24'0 0.0
2017-Jun-21 12:52N 47°41' W 122°24'0 0.0
2017-Jun-21 12:24N 47°41' W 122°24'0 0.0
2017-Jun-21 12:01N 47°41' W 122°24'0 0.0
2017-Jun-21 11:25N 47°41' W 122°24'0 0.0
2017-Jun-21 10:54N 47°41' W 122°24'0 0.0
2017-Jun-21 10:30N 47°41' W 122°24'0 0.0
2017-Jun-21 09:58N 47°41' W 122°24'0 0.0
2017-Jun-21 09:28N 47°41' W 122°24'0 0.0
2017-Jun-21 09:00N 47°41' W 122°24'0 0.0
2017-Jun-21 08:31N 47°41' W 122°24'0 0.0
2017-Jun-21 07:58N 47°41' W 122°24'0 0.0
2017-Jun-21 07:28N 47°41' W 122°24'0 0.0
2017-Jun-21 07:00N 47°41' W 122°24'0 0.0
2017-Jun-21 06:30N 47°41' W 122°24'0 0.0
2017-Jun-21 06:00N 47°41' W 122°24'0 0.0
2017-Jun-21 05:24N 47°41' W 122°24'0 0.0
2017-Jun-21 04:51N 47°41' W 122°24'0 0.0
2017-Jun-21 04:27N 47°41' W 122°24'0 0.0
2017-Jun-21 03:55N 47°41' W 122°24'0 0.0
2017-Jun-21 03:21N 47°41' W 122°24'0 0.0
2017-Jun-21 03:00N 47°41' W 122°24'0 0.0
2017-Jun-21 02:30N 47°41' W 122°24'0 0.0
2017-Jun-21 02:00N 47°41' W 122°24'0 0.0
2017-Jun-21 01:27N 47°41' W 122°24'0 0.0
2017-Jun-21 00:57N 47°41' W 122°24'0 0.0
2017-Jun-21 00:30N 47°41' W 122°24'0 0.0
2017-Jun-20 23:57N 47°41' W 122°24'0 0.0
2017-Jun-20 23:30N 47°41' W 122°24'0 0.0
2017-Jun-20 23:00N 47°41' W 122°24'0 0.0
2017-Jun-20 22:27N 47°41' W 122°24'0 0.0
2017-Jun-20 22:00N 47°41' W 122°24'0 0.0
2017-Jun-20 21:30N 47°41' W 122°24'0 0.0
2017-Jun-20 20:57N 47°41' W 122°24'0 0.0
2017-Jun-20 20:30N 47°41' W 122°24'0 0.1
2017-Jun-20 19:57N 47°41' W 122°24'0 0.0
2017-Jun-20 19:30N 47°41' W 122°24'0 0.0
2017-Jun-20 17:48N 47°41' W 122°24'0 0.0
2017-Jun-20 17:24N 47°41' W 122°24'0 0.0
2017-Jun-20 17:00N 47°41' W 122°24'0 0.0
2017-Jun-20 15:45N 47°41' W 122°24'0 0.0
2017-Jun-20 15:27N 47°41' W 122°24'0 0.0
2017-Jun-20 14:57N 47°41' W 122°24'0 0.0
2017-Jun-20 14:30N 47°41' W 122°24'0 0.0
2017-Jun-20 13:30N 47°41' W 122°24'0 0.0
2017-Jun-20 13:00N 47°41' W 122°24'0 0.0
2017-Jun-20 12:30N 47°41' W 122°24'0 0.0
2017-Jun-20 12:00N 47°41' W 122°24'0 0.0
2017-Jun-20 11:30N 47°41' W 122°24'0 0.0
2017-Jun-20 11:00N 47°41' W 122°24'0 0.0
2017-Jun-20 10:30N 47°41' W 122°24'0 0.0
2017-Jun-20 09:57N 47°41' W 122°24'0 0.0
2017-Jun-20 09:30N 47°41' W 122°24'0 0.0
2017-Jun-20 09:00N 47°41' W 122°24'0 0.0
2017-Jun-20 08:30N 47°41' W 122°24'0 0.0
2017-Jun-20 08:00N 47°41' W 122°24'0 0.0
2017-Jun-20 07:30N 47°41' W 122°24'0 0.0
2017-Jun-20 07:00N 47°41' W 122°24'0 0.0
2017-Jun-20 06:30N 47°41' W 122°24'0 0.0
2017-Jun-20 06:00N 47°41' W 122°24'0 0.0
2017-Jun-20 05:30N 47°41' W 122°24'0 0.0
2017-Jun-20 04:39N 47°41' W 122°24'0 0.0
2017-Jun-20 03:51N 47°41' W 122°24'0 0.0
2017-Jun-20 03:27N 47°41' W 122°24'0 0.0
2017-Jun-20 02:51N 47°41' W 122°24'0 0.0
2017-Jun-20 02:24N 47°41' W 122°24'0 0.0
2017-Jun-20 02:00N 47°41' W 122°24'0 0.0
2017-Jun-20 01:21N 47°41' W 122°24'0 0.0
2017-Jun-20 00:57N 47°41' W 122°24'0 0.5
2017-Jun-20 00:31N 47°41' W 122°25'2 3.6
2017-Jun-20 00:01N 47°40' W 122°27'3 5.2
2017-Jun-19 23:30N 47°37' W 122°26'2 4.6
2017-Jun-19 22:59N 47°35' W 122°26'2 4.6
2017-Jun-19 22:30N 47°32' W 122°26'2 3.5
2017-Jun-19 22:00N 47°31' W 122°24'2 4.6
2017-Jun-19 21:31N 47°29' W 122°26'2 2.9
2017-Jun-19 20:47N 47°29' W 122°23'1 3.8
2017-Jun-19 20:31N 47°28' W 122°24'2 4.0
2017-Jun-19 20:01N 47°26' W 122°23'2 4.5
2017-Jun-19 19:30N 47°24' W 122°21'2 4.6
2017-Jun-19 19:00N 47°22' W 122°22'  
Track history (hours):
 
Tides and Currents Weather Stations Pressure Air Temp Water Temp Dewpoint Dewpoint Depression Visibility Wind Speed Wind Dir Waves Ship Positions

Adventuress (United States)

Ship's website: http://www.soundexp.org/

Owner: SOUND EXPERIENCE, PORT TOWNSEND, WA. More information available from US FCC via Universal Licensing System and Coast Guard Vessel Documentation Center.

Last reported at 2017-Jun-26 17:17 UTC. Time now 2017-Jun-26 18:53 UTC.
Position N 48°44' W 122°31'.

Type: Passenger vessel. MMSI: 367323180.

Date/timePositionNaut miles runAvg speedWind from/ knotsBaromVisibWave heightAir tempDewpointWater temp
2017-Jun-26 17:17N 48°44' W 122°31'  
2017-Jun-24 06:15N 48°34' W 122°59'0 0.1
2017-Jun-23 23:44N 48°34' W 122°59'1 4.1
2017-Jun-23 23:28N 48°33' W 123°00'1 0.6
2017-Jun-23 22:33N 48°33' W 123°01'0 0.3
2017-Jun-23 22:24N 48°33' W 123°01'0 0.5
2017-Jun-23 21:54N 48°33' W 123°00'1 2.5
2017-Jun-23 21:29N 48°34' W 123°00'0 0.7
2017-Jun-23 20:55N 48°33' W 122°60'2 4.6
2017-Jun-23 20:29N 48°32' W 122°57'2 5.0
2017-Jun-23 20:00N 48°30' W 122°59'1 2.7
2017-Jun-23 19:30N 48°29' W 122°60'1 2.3
2017-Jun-23 19:00N 48°29' W 122°58'20 3.8
2017-Jun-23 13:46N 48°10' W 122°48'4 7.2
2017-Jun-23 13:16N 48°07' W 122°45'0 0.1
2017-Jun-23 06:14N 48°07' W 122°45'0 0.0
2017-Jun-22 23:11N 48°07' W 122°45'12 2.1
2017-Jun-22 17:31N 47°58' W 122°34'1 5.9
2017-Jun-22 17:19N 47°57' W 122°32'2 6.1
2017-Jun-22 17:00N 47°56' W 122°30'3 6.2
2017-Jun-22 16:30N 47°53' W 122°28'3 6.0
2017-Jun-22 16:00N 47°50' W 122°27'3 5.9
2017-Jun-22 15:30N 47°47' W 122°26'4 0.3
2017-Jun-22 01:01N 47°45' W 122°32'0 0.0
2017-Jun-22 00:49N 47°45' W 122°32'0 0.5
2017-Jun-22 00:28N 47°44' W 122°32'2 3.4
2017-Jun-22 00:00N 47°44' W 122°29'3 6.5
2017-Jun-21 23:30N 47°45' W 122°25'2 4.4
2017-Jun-21 23:00N 47°44' W 122°28'1 2.3
2017-Jun-21 22:30N 47°43' W 122°27'1 2.9
2017-Jun-21 22:00N 47°42' W 122°25'1 3.0
2017-Jun-21 21:31N 47°41' W 122°24'0 0.0
2017-Jun-21 20:58N 47°41' W 122°24'0 0.0
2017-Jun-21 20:28N 47°41' W 122°24'0 0.0
2017-Jun-21 19:58N 47°41' W 122°24'0 0.0
2017-Jun-21 19:31N 47°41' W 122°24'0 0.0
2017-Jun-21 19:01N 47°41' W 122°24'0 0.0
2017-Jun-21 18:28N 47°41' W 122°24'0 0.0
2017-Jun-21 17:55N 47°41' W 122°24'0 0.0
2017-Jun-21 17:31N 47°41' W 122°24'0 0.0
2017-Jun-21 17:00N 47°41' W 122°24'0 0.0
2017-Jun-21 16:31N 47°41' W 122°24'0 0.0
2017-Jun-21 16:00N 47°41' W 122°24'0 0.0
2017-Jun-21 15:31N 47°41' W 122°24'0 0.0
2017-Jun-21 15:01N 47°41' W 122°24'0 0.0
2017-Jun-21 14:30N 47°41' W 122°24'0 0.0
2017-Jun-21 13:30N 47°41' W 122°24'0 0.0
2017-Jun-21 12:52N 47°41' W 122°24'0 0.0
2017-Jun-21 12:24N 47°41' W 122°24'0 0.0
2017-Jun-21 12:01N 47°41' W 122°24'0 0.0
2017-Jun-21 11:25N 47°41' W 122°24'0 0.0
2017-Jun-21 10:54N 47°41' W 122°24'0 0.0
2017-Jun-21 10:30N 47°41' W 122°24'0 0.0
2017-Jun-21 09:58N 47°41' W 122°24'0 0.0
2017-Jun-21 09:28N 47°41' W 122°24'0 0.0
2017-Jun-21 09:00N 47°41' W 122°24'0 0.0
2017-Jun-21 08:31N 47°41' W 122°24'0 0.0
2017-Jun-21 07:58N 47°41' W 122°24'0 0.0
2017-Jun-21 07:28N 47°41' W 122°24'0 0.0
2017-Jun-21 07:00N 47°41' W 122°24'0 0.0
2017-Jun-21 06:30N 47°41' W 122°24'0 0.0
2017-Jun-21 06:00N 47°41' W 122°24'0 0.0
2017-Jun-21 05:24N 47°41' W 122°24'0 0.0
2017-Jun-21 04:51N 47°41' W 122°24'0 0.0
2017-Jun-21 04:27N 47°41' W 122°24'0 0.0
2017-Jun-21 03:55N 47°41' W 122°24'0 0.0
2017-Jun-21 03:21N 47°41' W 122°24'0 0.0
2017-Jun-21 03:00N 47°41' W 122°24'0 0.0
2017-Jun-21 02:30N 47°41' W 122°24'0 0.0
2017-Jun-21 02:00N 47°41' W 122°24'0 0.0
2017-Jun-21 01:27N 47°41' W 122°24'0 0.0
2017-Jun-21 00:57N 47°41' W 122°24'0 0.0
2017-Jun-21 00:30N 47°41' W 122°24'0 0.0
2017-Jun-20 23:57N 47°41' W 122°24'0 0.0
2017-Jun-20 23:30N 47°41' W 122°24'0 0.0
2017-Jun-20 23:00N 47°41' W 122°24'0 0.0
2017-Jun-20 22:27N 47°41' W 122°24'0 0.0
2017-Jun-20 22:00N 47°41' W 122°24'0 0.0
2017-Jun-20 21:30N 47°41' W 122°24'0 0.0
2017-Jun-20 20:57N 47°41' W 122°24'0 0.0
2017-Jun-20 20:30N 47°41' W 122°24'0 0.1
2017-Jun-20 19:57N 47°41' W 122°24'0 0.0
2017-Jun-20 19:30N 47°41' W 122°24'0 0.0
2017-Jun-20 17:48N 47°41' W 122°24'0 0.0
2017-Jun-20 17:24N 47°41' W 122°24'0 0.0
2017-Jun-20 17:00N 47°41' W 122°24'0 0.0
2017-Jun-20 15:45N 47°41' W 122°24'0 0.0
2017-Jun-20 15:27N 47°41' W 122°24'0 0.0
2017-Jun-20 14:57N 47°41' W 122°24'0 0.0
2017-Jun-20 14:30N 47°41' W 122°24'0 0.0
2017-Jun-20 13:30N 47°41' W 122°24'0 0.0
2017-Jun-20 13:00N 47°41' W 122°24'0 0.0
2017-Jun-20 12:30N 47°41' W 122°24'0 0.0
2017-Jun-20 12:00N 47°41' W 122°24'0 0.0
2017-Jun-20 11:30N 47°41' W 122°24'0 0.0
2017-Jun-20 11:00N 47°41' W 122°24'0 0.0
2017-Jun-20 10:30N 47°41' W 122°24'0 0.0
2017-Jun-20 09:57N 47°41' W 122°24'0 0.0
2017-Jun-20 09:30N 47°41' W 122°24'0 0.0
2017-Jun-20 09:00N 47°41' W 122°24'0 0.0
2017-Jun-20 08:30N 47°41' W 122°24'0 0.0
2017-Jun-20 08:00N 47°41' W 122°24'0 0.0
2017-Jun-20 07:30N 47°41' W 122°24'0 0.0
2017-Jun-20 07:00N 47°41' W 122°24'0 0.0
2017-Jun-20 06:30N 47°41' W 122°24'0 0.0
2017-Jun-20 06:00N 47°41' W 122°24'0 0.0
2017-Jun-20 05:30N 47°41' W 122°24'0 0.0
2017-Jun-20 04:39N 47°41' W 122°24'0 0.0
2017-Jun-20 03:51N 47°41' W 122°24'0 0.0
2017-Jun-20 03:27N 47°41' W 122°24'0 0.0
2017-Jun-20 02:51N 47°41' W 122°24'0 0.0
2017-Jun-20 02:24N 47°41' W 122°24'0 0.0
2017-Jun-20 02:00N 47°41' W 122°24'0 0.0
2017-Jun-20 01:21N 47°41' W 122°24'0 0.0
2017-Jun-20 00:57N 47°41' W 122°24'0 0.5
2017-Jun-20 00:31N 47°41' W 122°25'2 3.6
2017-Jun-20 00:01N 47°40' W 122°27'3 5.2
2017-Jun-19 23:30N 47°37' W 122°26'2 4.6
2017-Jun-19 22:59N 47°35' W 122°26'2 4.6
2017-Jun-19 22:30N 47°32' W 122°26'2 3.5
2017-Jun-19 22:00N 47°31' W 122°24'2 4.6
2017-Jun-19 21:31N 47°29' W 122°26'2 2.9
2017-Jun-19 20:47N 47°29' W 122°23'1 3.8
2017-Jun-19 20:31N 47°28' W 122°24'2 4.0
2017-Jun-19 20:01N 47°26' W 122°23'2 4.5
2017-Jun-19 19:30N 47°24' W 122°21'2 4.6
2017-Jun-19 19:00N 47°22' W 122°22'  

Dump ship's entire track history